Aérodrome :
LOGIN :

S'inscrire | Disclaimer

   EN    FR    IT 

 










Légende :    VFR   VFR Marginal   IFR   IFR Intensif   IFR Très Intensif
Visi : 
Plafond : 
>= 8 km
>= 3000ft
5 à 8 km
1000 à 3000 ft
1500m à 5 km
500 à 1000 ft
800 à 1500m
200 à 500 ft
< 800m
< 200 ft
Symboles :   Orages  Brouillard  Fortes neiges  Fortes précipitations  Vent > 20 kt
SIGMETs :   Divers  Orages  Givrage  Turbulence  Onde Orograph.  Cendres Volcan.







- Altitude de l'aérodrome : 412 ft
- Code IATA : KGS


LGKO - Ippokratis

DERNIER METAR :
  • 161350Z /////KT 9999 FEW018TCU BKN025 12/08 Q1017

METARs EXPIRÉS :
  • 161320Z VRB02KT 9999 FEW018TCU BKN025 12/08 Q1017
  • 161250Z VRB02KT 9999 FEW018TCU BKN025 12/08 Q1017
  • 161220Z VRB02KT 9000 -RA FEW018TCU BKN025 12/07 Q1017
  • 161150Z /////KT 9999 -DZ FEW018TCU BKN025 13/08 Q1017
  • 161120Z VRB03KT 9999 FEW018TCU BKN025 12/07 Q1017

TAF TAF LGKO
Valide du 16 à 12h jusqu'au 17 à 12h UTC


161100Z 1612/1712 04012KT 9999 FEW020 SCT025
PROB40
TEMPO 1612/1618 5000 RA SCT015 FEW018TCU BKN020
BECMG 1612/1614 VRB05KT
BECMG 1710/1712 34015KT
Pas de NOTAMs connus pour ce terrain.
1 SIGMET publié pour la FIR Athinai (LGGG) :
 
Orages noyés dans la masse
LGGG SIGMET 5 VALID 161135/161535 LGAT
LGGG ATHINAI FIR/UIR EMBD TS OBS E OF E02330 AND S OF N3700 STNR NC=



MET'MAP, la Météo Aéronautique d'un coup d'oeil ! - Copyright ORBIFLY Décembre 2007 - Disclaimer

ORBIFLY MET'MAP TEAM :

Programmation & Développement : Alexandra Zaïnal
Conception & Développement : Baudouin d'Aumeries
Co-Programmation & Développement : Marc-Olivier Méhu
Soutien technique & logistique : Manuel Goepfert

Contact : metmap@orbifly.com




SOURCES & CREDITS :

   NOAA